Time;durP1;ratioP1;P1;durP2;ratioP2;P2;SDS_P1;SDS_P2;PMS_P1;PMS_P2;Temp;Humidity;BMP_temperature;BMP_pressure;BME280_temperature;BME280_humidity;BME280_pressure;Samples;Min_cycle;Max_cycle;Signal;HPM_P1;HPM_P2
2021/11/04 00:02:07;;;;;;;21.33;12.43;;;;;;;9.35;100.00;100326.56;5008448;28;20056;-62
2021/11/04 00:04:52;;;;;;;25.55;13.10;;;;;;;9.22;100.00;100322.22;5020612;28;20047;-61
2021/11/04 00:07:36;;;;;;;20.00;13.13;;;;;;;9.20;100.00;100319.59;5003713;28;20192;-63
2021/11/04 00:10:21;;;;;;;21.40;12.85;;;;;;;9.02;100.00;100319.69;5006264;28;20464;-64
2021/11/04 00:13:05;;;;;;;22.40;13.32;;;;;;;8.98;100.00;100320.56;5017177;28;20068;-63
2021/11/04 00:15:51;;;;;;;23.23;13.98;;;;;;;9.06;100.00;100324.06;5001983;28;20054;-60
2021/11/04 00:18:37;;;;;;;20.83;13.02;;;;;;;9.17;100.00;100331.94;5020077;28;20047;-63
2021/11/04 00:21:22;;;;;;;24.15;14.05;;;;;;;9.12;100.00;100325.81;5014036;28;20115;-67
2021/11/04 00:24:06;;;;;;;28.35;14.68;;;;;;;9.06;100.00;100328.50;5019405;28;20056;-62
2021/11/04 00:26:52;;;;;;;23.92;14.52;;;;;;;9.12;100.00;100323.16;5017868;28;20147;-61
2021/11/04 00:29:37;;;;;;;32.88;16.20;;;;;;;9.22;100.00;100324.88;5007689;28;20537;-66
2021/11/04 00:32:21;;;;;;;29.65;15.93;;;;;;;9.18;100.00;100326.63;5018049;28;20096;-61
2021/11/04 00:35:06;;;;;;;;;;;;;;;9.12;100.00;100320.50;5016777;28;20061;-62
2021/11/04 00:37:51;;;;;;;23.58;13.15;;;;;;;9.21;100.00;100315.16;5021183;28;20332;-62
2021/11/04 00:40:36;;;;;;;20.60;11.20;;;;;;;9.14;100.00;100327.53;5016544;28;20044;-66
2021/11/04 00:43:20;;;;;;;17.88;10.68;;;;;;;9.15;100.00;100307.28;5015884;28;20057;-64
2021/11/04 00:46:05;;;;;;;18.75;10.55;;;;;;;9.21;100.00;100318.69;5014943;28;20108;-61
2021/11/04 00:48:49;;;;;;;14.60;8.93;;;;;;;9.19;100.00;100303.72;5004711;28;20084;-61
2021/11/04 00:51:34;;;;;;;12.68;8.77;;;;;;;9.28;100.00;100307.19;5008957;28;20339;-63
2021/11/04 00:54:18;;;;;;;15.02;9.70;;;;;;;9.31;100.00;100309.78;5006613;28;20418;-62
2021/11/04 00:57:03;;;;;;;17.83;9.73;;;;;;;9.35;100.00;100303.59;5018007;28;20528;-61
2021/11/04 00:59:50;;;;;;;16.85;9.95;;;;;;;9.29;100.00;100308.94;5003013;28;20084;-68
2021/11/04 01:02:35;;;;;;;13.32;8.52;;;;;;;9.25;100.00;100319.53;5004409;28;20095;-62
2021/11/04 01:05:21;;;;;;;13.10;8.98;;;;;;;9.27;100.00;100318.63;5017017;28;20053;-61
2021/11/04 01:08:06;;;;;;;17.17;8.75;;;;;;;9.24;100.00;100315.16;5018749;28;20053;-61
2021/11/04 01:10:52;;;;;;;15.43;9.07;;;;;;;9.31;100.00;100316.88;5016015;28;20047;-61
2021/11/04 01:13:39;;;;;;;16.52;8.80;;;;;;;9.37;100.00;100319.47;5017574;28;20060;-65
2021/11/04 01:16:24;;;;;;;15.18;8.32;;;;;;;9.29;100.00;100313.34;5006501;28;20095;-61
2021/11/04 01:19:12;;;;;;;13.38;7.90;;;;;;;9.18;100.00;100310.75;5019928;28;20417;-61
2021/11/04 01:21:57;;;;;;;12.10;8.65;;;;;;;9.26;100.00;100310.75;5024405;28;20092;-67
2021/11/04 01:24:42;;;;;;;14.43;7.95;;;;;;;9.27;100.00;100312.50;5023786;28;20076;-62
2021/11/04 01:27:27;;;;;;;14.20;8.77;;;;;;;9.35;100.00;100313.31;5020999;28;20065;-62
2021/11/04 01:30:12;;;;;;;13.40;8.77;;;;;;;9.38;100.00;100319.47;5008225;28;20141;-63
2021/11/04 01:32:58;;;;;;;12.63;8.25;;;;;;;9.33;100.00;100305.38;5018886;28;20516;-66
2021/11/04 01:35:43;;;;;;;13.60;8.75;;;;;;;9.35;100.00;100321.25;5006966;28;20060;-64
2021/11/04 01:38:27;;;;;;;13.38;8.90;;;;;;;9.29;100.00;100305.41;5006609;28;20531;-63
2021/11/04 01:41:12;;;;;;;15.77;9.25;;;;;;;9.34;100.00;100315.06;5023218;28;20080;-61
2021/11/04 01:43:57;;;;;;;15.90;9.05;;;;;;;9.39;100.00;100307.97;5020438;28;20056;-67
2021/11/04 01:46:44;;;;;;;18.85;9.48;;;;;;;9.31;100.00;100314.22;5022197;28;20048;-63
2021/11/04 01:49:29;;;;;;;16.58;9.18;;;;;;;9.30;100.00;100320.41;5021052;28;20048;-63
2021/11/04 01:52:15;;;;;;;18.20;9.07;;;;;;;9.33;100.00;100310.69;5021646;28;20048;-64
2021/11/04 01:55:00;;;;;;;19.00;9.73;;;;;;;9.36;100.00;100310.66;5007480;28;20056;-61
2021/11/04 01:57:48;;;;;;;22.40;11.25;;;;;;;9.33;100.00;100310.69;5003589;28;20064;-63
2021/11/04 02:00:33;;;;;;;22.27;11.38;;;;;;;9.37;100.00;100315.06;5026475;28;20056;-62
2021/11/04 02:03:25;;;;;;;24.98;11.02;;;;;;;9.47;100.00;100319.38;4994999;28;20483;-61
2021/11/04 02:06:33;;;;;;;21.58;10.52;;;;;;;9.46;100.00;100322.94;5017407;28;20108;-61
2021/11/04 02:09:38;;;;;;;14.73;8.60;;;;;;;9.39;100.00;100321.22;5023783;28;20072;-68
2021/11/04 02:12:33;;;;;;;12.43;8.80;;;;;;;9.38;100.00;100319.47;5022722;28;20433;-61
2021/11/04 02:15:20;;;;;;;13.98;8.75;;;;;;;9.49;100.00;100314.97;5010852;28;20076;-62
2021/11/04 02:18:08;;;;;;;18.58;9.75;;;;;;;9.57;100.00;100326.38;4991806;28;20099;-61
2021/11/04 02:21:41;;;;;;;15.65;9.30;;;;;;;9.68;100.00;100320.16;4996125;28;20048;-61
2021/11/04 02:24:49;;;;;;;17.88;9.70;;;;;;;9.68;100.00;100328.97;4978863;28;20093;-61
2021/11/04 02:27:34;;;;;;;15.13;10.18;;;;;;;9.63;100.00;100320.19;4938585;28;20078;-60
2021/11/04 02:30:21;;;;;;;13.13;9.20;;;;;;;9.61;100.00;100314.00;4938478;29;20109;-61
2021/11/04 02:33:07;;;;;;;14.43;9.25;;;;;;;9.56;100.00;100321.09;4936611;29;20149;-66
2021/11/04 02:35:53;;;;;;;15.32;10.23;;;;;;;9.62;100.00;100317.53;4938554;29;20419;-64
2021/11/04 02:38:39;;;;;;;15.30;9.60;;;;;;;9.66;100.00;100321.91;4940890;29;20090;-63
2021/11/04 02:41:24;;;;;;;15.77;9.57;;;;;;;9.72;100.00;100322.75;4935383;28;20054;-65
2021/11/04 02:44:11;;;;;;;15.75;10.07;;;;;;;9.70;100.00;100328.94;4943630;29;20089;-62
2021/11/04 02:46:58;;;;;;;14.35;9.65;;;;;;;9.72;100.00;100325.41;4939775;29;20742;-63
2021/11/04 02:49:45;;;;;;;14.73;10.02;;;;;;;9.77;100.00;100323.59;4936056;29;20786;-62
2021/11/04 02:52:30;;;;;;;13.65;8.85;;;;;;;9.71;100.00;100328.94;4935052;29;20078;-61
2021/11/04 02:55:14;;;;;;;;;;;;;;;9.65;100.00;100323.69;4935475;29;20864;-68
2021/11/04 02:58:04;;;;;;;13.05;10.43;;;;;;;9.64;100.00;100321.94;4938941;28;20038;-61
2021/11/04 03:00:54;;;;;;;16.17;10.13;;;;;;;9.74;100.00;100323.63;4951832;28;20050;-61
2021/11/04 03:03:38;;;;;;;13.50;9.65;;;;;;;9.82;100.00;100323.56;4966279;28;20084;-62
2021/11/04 03:06:23;;;;;;;15.10;10.35;;;;;;;9.87;100.00;100338.53;5019586;28;20153;-67
2021/11/04 03:09:08;;;;;;;17.23;10.77;;;;;;;9.83;100.00;100327.94;5015471;28;20048;-65
2021/11/04 03:11:53;;;;;;;13.98;9.75;;;;;;;9.83;100.00;100341.19;5020858;28;20131;-61
2021/11/04 03:14:38;;;;;;;16.00;9.77;;;;;;;9.80;100.00;100343.91;5019685;28;20102;-61
2021/11/04 03:17:23;;;;;;;;;;;;;;;9.62;100.00;100342.25;5017635;28;20052;-58
2021/11/04 03:20:09;;;;;;;13.80;8.73;;;;;;;9.59;100.00;100355.50;5026212;28;20015;-62
2021/11/04 03:22:54;;;;;;;16.60;8.80;;;;;;;9.71;100.00;100351.88;4995023;28;20095;-61
2021/11/04 03:25:42;;;;;;;13.93;8.88;;;;;;;9.79;100.00;100355.34;5021017;28;20053;-61
2021/11/04 03:28:28;;;;;;;12.45;8.45;;;;;;;9.78;100.00;100353.59;5018100;28;20072;-64
2021/11/04 03:31:14;;;;;;;13.45;8.50;;;;;;;9.74;100.00;100350.13;5023683;28;20117;-62
2021/11/04 03:34:00;;;;;;;15.93;8.68;;;;;;;9.88;100.00;100360.59;5017001;28;20140;-64
2021/11/04 03:36:51;;;;;;;13.60;8.95;;;;;;;9.91;100.00;100357.91;5005494;28;20072;-62
2021/11/04 03:39:40;;;;;;;14.18;8.98;;;;;;;9.92;100.00;100349.94;5019305;28;20048;-62
2021/11/04 03:42:25;;;;;;;13.48;8.98;;;;;;;9.95;100.00;100359.63;5018156;28;20092;-61
2021/11/04 03:45:13;;;;;;;15.52;8.23;;;;;;;9.78;100.00;100366.84;5020305;28;20052;-61
2021/11/04 03:47:58;;;;;;;14.25;9.48;;;;;;;9.85;100.00;100368.56;5014937;28;20056;-62
2021/11/04 03:50:43;;;;;;;13.15;8.85;;;;;;;9.79;100.00;100366.84;5002517;28;20205;-61
2021/11/04 03:53:29;;;;;;;13.07;9.05;;;;;;;9.81;100.00;100378.28;5001738;28;20108;-69
2021/11/04 03:56:15;;;;;;;12.23;8.45;;;;;;;9.88;100.00;100363.25;5020995;28;20052;-70
2021/11/04 03:58:59;;;;;;;14.93;9.63;;;;;;;9.86;100.00;100378.25;5020381;28;20105;-62
2021/11/04 04:01:45;;;;;;;15.77;8.75;;;;;;;9.81;100.00;100373.00;5016205;28;20763;-61
2021/11/04 04:04:30;;;;;;;13.73;8.63;;;;;;;9.67;100.00;100373.97;5019581;28;20059;-62
2021/11/04 04:07:14;;;;;;;15.27;8.98;;;;;;;9.75;100.00;100380.09;5021775;28;20064;-64
2021/11/04 04:09:59;;;;;;;15.02;9.38;;;;;;;9.78;100.00;100388.03;5021565;28;20076;-65
2021/11/04 04:12:44;;;;;;;14.77;8.80;;;;;;;9.75;100.00;100381.00;5000820;28;20067;-61
2021/11/04 04:15:29;;;;;;;11.90;8.65;;;;;;;9.75;100.00;100394.22;5012118;28;20060;-69
2021/11/04 04:18:14;;;;;;;14.00;8.75;;;;;;;9.67;100.00;100403.09;5008196;28;20056;-65
2021/11/04 04:20:59;;;;;;;13.32;9.23;;;;;;;9.66;100.00;100402.25;5008907;28;20059;-68
2021/11/04 04:23:44;;;;;;;12.93;8.68;;;;;;;9.66;100.00;100401.34;5024048;28;20056;-58
2021/11/04 04:26:29;;;;;;;13.57;9.70;;;;;;;9.64;100.00;100411.94;5025260;28;22021;-66
2021/11/04 04:29:15;;;;;;;16.48;8.82;;;;;;;9.63;100.00;100414.59;5020979;28;20052;-61
2021/11/04 04:32:00;;;;;;;12.85;9.00;;;;;;;9.68;100.00;100416.34;5024694;28;20064;-61
2021/11/04 04:34:45;;;;;;;;;;;;;;;9.69;100.00;100422.53;5011282;28;20056;-64
2021/11/04 04:37:30;;;;;;;13.88;9.25;;;;;;;9.65;100.00;100423.44;5023118;28;19923;-63
2021/11/04 04:40:14;;;;;;;15.35;9.75;;;;;;;9.80;100.00;100420.69;5023402;28;20060;-59
2021/11/04 04:43:02;;;;;;;20.30;12.48;;;;;;;9.90;100.00;100420.63;5025880;28;20048;-65
2021/11/04 04:45:46;;;;;;;13.60;8.77;;;;;;;9.93;100.00;100425.00;5025498;28;20044;-65
2021/11/04 04:48:31;;;;;;;15.23;10.50;;;;;;;9.74;100.00;100426.00;5024377;28;20053;-68
2021/11/04 04:51:15;;;;;;;13.52;8.68;;;;;;;9.73;100.00;100427.78;5027376;28;20453;-65
2021/11/04 04:54:00;;;;;;;12.45;8.57;;;;;;;9.71;100.00;100426.91;5025602;28;20115;-63
2021/11/04 04:56:44;;;;;;;14.80;9.60;;;;;;;9.59;100.00;100434.94;5021688;28;20079;-63
2021/11/04 04:59:30;;;;;;;14.90;9.05;;;;;;;9.69;100.00;100455.16;5002288;28;20532;-68
2021/11/04 05:02:14;;;;;;;14.98;9.77;;;;;;;9.71;100.00;100449.88;5029176;28;20052;-60
2021/11/04 05:04:59;;;;;;;15.43;8.63;;;;;;;9.71;100.00;100447.22;5028054;28;20049;-71
2021/11/04 05:07:44;;;;;;;14.82;8.90;;;;;;;9.77;100.00;100441.91;5028491;28;20056;-61
2021/11/04 05:10:29;;;;;;;13.27;8.57;;;;;;;9.72;100.00;100447.22;5014123;28;20104;-64
2021/11/04 05:13:14;;;;;;;18.50;8.82;;;;;;;9.80;100.00;100447.19;5026949;28;20103;-64
2021/11/04 05:15:59;;;;;;;16.25;11.15;;;;;;;9.80;100.00;100440.09;5029092;28;20406;-70
2021/11/04 05:18:44;;;;;;;13.60;8.60;;;;;;;9.94;100.00;100448.84;5012425;28;20053;-63
2021/11/04 05:21:28;;;;;;;14.48;9.20;;;;;;;9.92;100.00;100444.47;5028719;28;20056;-66
2021/11/04 05:24:14;;;;;;;16.08;10.27;;;;;;;9.84;100.00;100463.03;5027730;28;20099;-61
2021/11/04 05:26:58;;;;;;;15.32;9.23;;;;;;;9.79;100.00;100456.00;5010126;28;20115;-62
2021/11/04 05:29:43;;;;;;;16.08;8.70;;;;;;;9.82;100.00;100466.56;5013602;28;20528;-62
2021/11/04 05:32:28;;;;;;;12.93;8.40;;;;;;;9.87;100.00;100459.47;5026041;28;20520;-66
2021/11/04 05:35:14;;;;;;;14.13;9.15;;;;;;;9.88;100.00;100456.81;5026725;28;20053;-64
2021/11/04 05:37:59;;;;;;;15.75;9.13;;;;;;;9.87;100.00;100470.97;5009390;28;20068;-68
2021/11/04 05:40:43;;;;;;;15.60;9.02;;;;;;;9.82;100.00;100483.34;5028362;28;20044;-64
2021/11/04 05:43:28;;;;;;;14.60;9.20;;;;;;;9.88;100.00;100482.44;4981581;28;20096;-68
2021/11/04 05:46:13;;;;;;;18.50;9.75;;;;;;;9.85;100.00;100483.31;4993080;28;20136;-65
2021/11/04 05:48:58;;;;;;;17.10;9.77;;;;;;;9.87;100.00;100491.25;5015337;28;20467;-62
2021/11/04 05:51:42;;;;;;;18.65;8.93;;;;;;;9.93;100.00;100501.84;5014776;28;20095;-70
2021/11/04 05:54:27;;;;;;;15.93;9.95;;;;;;;9.78;100.00;100489.56;5025794;28;20424;-63
2021/11/04 05:57:11;;;;;;;15.80;9.70;;;;;;;9.81;100.00;100492.16;5010902;28;20060;-61
2021/11/04 05:59:56;;;;;;;20.83;11.60;;;;;;;9.90;100.00;100493.91;5012770;28;20126;-65
2021/11/04 06:02:41;;;;;;;18.60;10.75;;;;;;;9.87;100.00;100493.91;5011981;28;20052;-64
2021/11/04 06:05:26;;;;;;;18.50;11.98;;;;;;;9.80;100.00;100502.81;5026481;28;20107;-64
2021/11/04 06:08:11;;;;;;;19.45;11.80;;;;;;;9.89;100.00;100508.03;5027260;28;20095;-62
2021/11/04 06:10:55;;;;;;;18.05;11.70;;;;;;;9.87;100.00;100513.34;5012020;28;20056;-68
2021/11/04 06:13:40;;;;;;;20.83;12.07;;;;;;;9.92;100.00;100508.03;5021222;28;20068;-63
2021/11/04 06:16:24;;;;;;;19.67;10.93;;;;;;;10.01;100.00;100514.13;5026228;28;20044;-63
2021/11/04 06:19:09;;;;;;;24.38;11.18;;;;;;;10.05;100.00;100515.00;5027352;28;20056;-63
2021/11/04 06:21:53;;;;;;;17.73;9.75;;;;;;;10.12;100.00;100517.63;5022104;28;20056;-62
2021/11/04 06:24:38;;;;;;;16.52;10.13;;;;;;;10.04;100.00;100521.22;5027224;28;20056;-62
2021/11/04 06:27:22;;;;;;;20.27;10.45;;;;;;;10.07;100.00;100526.50;5038303;28;20068;-62
2021/11/04 06:30:10;;;;;;;18.10;9.77;;;;;;;10.16;100.00;100539.72;5011010;28;20502;-64
2021/11/04 06:32:54;;;;;;;17.23;10.13;;;;;;;10.17;100.00;100530.88;5028005;28;20052;-61
2021/11/04 06:35:39;;;;;;;13.60;8.75;;;;;;;10.14;100.00;100530.88;5023723;28;20472;-62
2021/11/04 06:38:24;;;;;;;18.40;10.27;;;;;;;10.15;100.00;100543.22;5013180;28;20063;-64
2021/11/04 06:41:09;;;;;;;19.08;10.20;;;;;;;10.13;100.00;100540.59;5011884;28;20873;-61
2021/11/04 06:43:54;;;;;;;17.30;10.18;;;;;;;10.12;100.00;100544.13;5027251;28;20418;-63
2021/11/04 06:46:41;;;;;;;16.58;10.38;;;;;;;10.09;100.00;100528.25;5026620;28;20056;-63
2021/11/04 06:49:28;;;;;;;20.65;10.23;;;;;;;10.22;100.00;100547.63;5025483;28;20048;-70
2021/11/04 06:52:14;;;;;;;16.88;9.45;;;;;;;10.28;100.00;100550.25;5011437;28;20068;-62
2021/11/04 06:55:01;;;;;;;16.48;9.77;;;;;;;10.28;100.00;100552.88;5009940;28;20079;-67
2021/11/04 06:57:50;;;;;;;18.60;10.13;;;;;;;10.41;100.00;100555.44;5026230;28;20056;-62
2021/11/04 07:00:39;;;;;;;16.83;10.45;;;;;;;10.32;100.00;100558.16;5026769;28;20094;-64
2021/11/04 07:03:27;;;;;;;17.70;10.07;;;;;;;10.31;100.00;100571.41;5024502;28;20064;-62
2021/11/04 07:06:12;;;;;;;14.63;9.45;;;;;;;10.26;100.00;100567.91;5011902;28;20521;-61
2021/11/04 07:08:59;;;;;;;;;;;;;;;10.18;100.00;100570.63;5023572;28;20103;-66
2021/11/04 07:11:45;;;;;;;17.35;9.05;;;;;;;10.18;100.00;100573.25;4988622;28;20409;-61
2021/11/04 07:14:32;;;;;;;17.85;10.15;;;;;;;10.13;100.00;100566.22;5010046;28;20049;-69
2021/11/04 07:17:16;;;;;;;14.50;8.80;;;;;;;10.37;100.00;100574.03;5024155;28;20053;-62
2021/11/04 07:20:01;;;;;;;15.52;9.50;;;;;;;10.52;100.00;100577.44;5007041;28;20084;-64
2021/11/04 07:22:51;;;;;;;13.10;7.95;;;;;;;10.77;100.00;100579.06;5023649;28;20409;-61
2021/11/04 07:25:41;;;;;;;13.52;7.95;;;;;;;10.62;100.00;100596.81;5025176;28;20491;-62
2021/11/04 07:28:28;;;;;;;12.20;7.25;;;;;;;10.39;100.00;100591.69;5026192;28;20092;-63
2021/11/04 07:31:13;;;;;;;13.05;8.55;;;;;;;10.38;100.00;100589.94;5023587;28;20428;-63
2021/11/04 07:34:01;;;;;;;14.38;8.65;;;;;;;10.32;100.00;100597.91;5011981;28;20064;-62
2021/11/04 07:36:48;;;;;;;13.40;7.50;;;;;;;10.26;100.00;100599.72;5024794;28;20059;-63
2021/11/04 07:39:33;;;;;;;15.32;9.25;;;;;;;10.29;100.00;100591.75;5009621;28;20056;-63
2021/11/04 07:42:17;;;;;;;13.75;8.25;;;;;;;10.32;100.00;100605.84;5024967;28;20048;-63
2021/11/04 07:45:03;;;;;;;14.20;8.50;;;;;;;10.35;100.00;100600.53;5023543;28;20103;-70
2021/11/04 07:47:48;;;;;;;12.50;7.85;;;;;;;11.01;100.00;100604.50;5010688;28;20080;-63
2021/11/04 07:50:34;;;;;;;12.57;7.72;;;;;;;11.95;100.00;100624.78;5008652;28;20079;-64
2021/11/04 07:53:19;;;;;;;11.50;7.88;;;;;;;11.42;100.00;100618.25;5014274;28;20092;-65
2021/11/04 07:56:04;;;;;;;;;;;;;;;11.44;100.00;100617.34;5024042;28;20068;-64
2021/11/04 07:58:49;;;;;;;14.57;7.35;;;;;;;11.31;100.00;100599.78;4995878;28;19986;-66
2021/11/04 08:01:33;;;;;;;12.35;7.95;;;;;;;11.46;100.00;100604.94;4991958;28;20414;-63
2021/11/04 08:04:18;;;;;;;11.70;7.45;;;;;;;12.17;100.00;100623.63;5022885;28;20044;-68
2021/11/04 08:07:03;;;;;;;13.27;7.43;;;;;;;12.43;100.00;100634.78;5010408;28;20155;-63
2021/11/04 08:09:47;;;;;;;10.77;7.05;;;;;;;11.67;100.00;100649.91;5007588;28;20048;-64
2021/11/04 08:12:35;;;;;;;12.63;8.10;;;;;;;11.47;100.00;100648.31;4970399;28;1516572;-66
2021/11/04 08:15:20;;;;;;;12.48;7.15;;;;;;;11.52;100.00;100630.56;5023246;28;20469;-62
2021/11/04 08:18:08;;;;;;;10.88;7.07;;;;;;;12.26;100.00;100638.59;5024494;28;20055;-72
2021/11/04 08:20:52;;;;;;;13.15;8.10;;;;;;;12.86;100.00;100643.03;5008613;28;20099;-64
2021/11/04 08:23:37;;;;;;;10.65;6.55;;;;;;;12.68;100.00;100630.00;5008909;28;20103;-63
2021/11/04 08:26:22;;;;;;;11.70;6.95;;;;;;;12.70;100.00;100630.88;5024482;28;20056;-63
2021/11/04 08:29:06;;;;;;;9.63;7.20;;;;;;;13.28;100.00;100627.28;5024417;28;20181;-62
2021/11/04 08:31:51;;;;;;;9.40;6.35;;;;;;;14.82;100.00;100643.69;5025238;28;20564;-63
2021/11/04 08:34:36;;;;;;;;;;;;;;;15.05;100.00;100635.13;5024764;28;20055;-64
2021/11/04 08:37:21;;;;;;;11.75;6.40;;;;;;;16.27;100.00;100628.25;5010016;28;19971;-70
2021/11/04 08:40:07;;;;;;;12.23;5.97;;;;;;;17.03;100.00;100658.94;5025535;28;20052;-62
2021/11/04 08:42:52;;;;;;;9.70;5.93;;;;;;;16.74;100.00;100654.50;5023161;28;20065;-69
2021/11/04 08:45:37;;;;;;;7.35;5.70;;;;;;;17.12;100.00;100654.16;5003631;28;20107;-62
2021/11/04 08:48:21;;;;;;;8.48;5.93;;;;;;;17.05;100.00;100665.16;5014134;28;20153;-63
2021/11/04 08:51:08;;;;;;;7.85;5.28;;;;;;;16.52;100.00;100674.81;5009654;28;20080;-63
2021/11/04 08:53:52;;;;;;;6.93;5.25;;;;;;;17.16;100.00;100650.47;5019751;28;20188;-65
2021/11/04 08:56:38;;;;;;;8.80;5.53;;;;;;;17.45;100.00;100685.25;5017871;28;20209;-68
2021/11/04 08:59:22;;;;;;;8.13;5.30;;;;;;;16.88;100.00;100679.06;5020312;28;20060;-59
2021/11/04 09:02:10;;;;;;;6.18;5.32;;;;;;;16.89;100.00;100680.81;5016510;28;20104;-60
2021/11/04 09:04:55;;;;;;;9.27;5.10;;;;;;;15.66;100.00;100670.13;5017985;28;20056;-61
2021/11/04 09:07:41;;;;;;;6.03;4.43;;;;;;;15.17;100.00;100674.91;5000290;28;20856;-64
2021/11/04 09:10:26;;;;;;;8.57;5.05;;;;;;;14.63;100.00;100682.38;5005466;28;20095;-63
2021/11/04 09:13:10;;;;;;;6.00;4.40;;;;;;;13.92;100.00;100696.28;5017794;28;20100;-62
2021/11/04 09:15:55;;;;;;;7.25;5.25;;;;;;;13.05;100.00;100701.34;5017289;28;20107;-66
2021/11/04 09:18:40;;;;;;;11.05;5.45;;;;;;;12.86;100.00;100686.50;5018748;28;20115;-64
2021/11/04 09:21:25;;;;;;;10.00;6.18;;;;;;;12.40;100.00;100700.44;5017439;28;20075;-66
2021/11/04 09:24:10;;;;;;;;;;;;;;;12.43;100.00;100697.75;5003841;28;20087;-64
2021/11/04 09:26:56;;;;;;;8.63;5.85;;;;;;;12.39;100.00;100698.69;5004354;28;19928;-64
2021/11/04 09:29:42;;;;;;;8.13;5.15;;;;;;;12.30;100.00;100714.78;5016526;28;20088;-62
2021/11/04 09:32:27;;;;;;;9.05;6.28;;;;;;;12.22;100.00;100714.84;5021793;28;20044;-62
2021/11/04 09:35:13;;;;;;;8.35;5.90;;;;;;;12.08;100.00;100714.13;5016672;28;20080;-63
2021/11/04 09:37:58;;;;;;;8.82;5.50;;;;;;;11.78;100.00;100727.72;5020387;28;20060;-62
2021/11/04 09:40:43;;;;;;;8.30;5.65;;;;;;;12.01;100.00;100723.06;5019270;28;20136;-63
2021/11/04 09:43:32;;;;;;;9.57;5.80;;;;;;;12.08;100.00;100721.22;5017326;28;20153;-64
2021/11/04 09:46:17;;;;;;;9.07;5.68;;;;;;;12.46;100.00;100724.34;5023497;28;20189;-64
2021/11/04 09:49:02;;;;;;;10.50;5.43;;;;;;;13.32;100.00;100718.66;5016239;28;20101;-75
2021/11/04 09:51:47;;;;;;;8.77;5.25;;;;;;;13.46;100.00;100720.19;4988035;28;20045;-66
2021/11/04 09:54:32;;;;;;;8.82;5.53;;;;;;;14.07;100.00;100719.09;5003974;28;20130;-66
2021/11/04 09:57:17;;;;;;;;;;;;;;;15.16;100.00;100723.91;5006293;28;20109;-65
2021/11/04 10:00:04;;;;;;;8.63;5.50;;;;;;;14.32;100.00;100731.09;5015775;28;20061;-67
2021/11/04 10:03:04;;;;;;;10.07;5.10;;;;;;;13.44;100.00;100740.66;5019374;28;20057;-73
2021/11/04 10:05:52;;;;;;;9.00;5.22;;;;;;;13.26;100.00;100740.09;5016083;28;20071;-64
2021/11/04 10:08:38;;;;;;;9.38;5.93;;;;;;;13.10;100.00;100728.75;5023776;28;20056;-66
2021/11/04 10:11:34;;;;;;;8.02;6.00;;;;;;;13.00;100.00;100727.16;5004964;28;20521;-62
2021/11/04 10:14:19;;;;;;;8.82;5.88;;;;;;;13.10;100.00;100736.75;5005680;28;20045;-62
2021/11/04 10:17:03;;;;;;;11.43;6.15;;;;;;;13.18;100.00;100750.84;5013410;28;20080;-68
2021/11/04 10:19:49;;;;;;;7.80;5.53;;;;;;;13.14;100.00;100758.91;5016651;28;20072;-65
2021/11/04 10:22:34;;;;;;;9.80;5.75;;;;;;;14.82;100.00;100750.50;5016706;28;20096;-66
2021/11/04 10:25:25;;;;;;;8.98;5.63;;;;;;;16.02;100.00;100747.59;5009684;28;20048;-70
2021/11/04 10:28:27;;;;;;;8.63;5.13;;;;;;;17.62;100.00;100744.59;5009992;28;20045;-63
2021/11/04 10:31:18;;;;;;;11.68;5.75;;;;;;;18.20;100.00;100739.91;5010007;28;20095;-67
2021/11/04 10:34:03;;;;;;;6.68;5.10;;;;;;;17.46;100.00;100743.34;5003589;28;20057;-65
2021/11/04 10:36:47;;;;;;;;;;;;;;;16.87;100.00;100748.75;5007374;28;20521;-62
2021/11/04 10:39:38;;;;;;;9.00;5.90;;;;;;;15.65;100.00;100736.09;5024089;28;19928;-64
2021/11/04 10:42:26;;;;;;;11.48;5.80;;;;;;;15.12;100.00;100741.81;5009639;28;20125;-62
2021/11/04 10:45:25;;;;;;;10.15;5.70;;;;;;;14.41;100.00;100750.50;5017932;28;20052;-63
2021/11/04 10:48:23;;;;;;;7.60;5.63;;;;;;;14.04;100.00;100769.84;5007049;28;20228;-69
2021/11/04 10:51:19;;;;;;;9.30;5.68;;;;;;;13.72;100.00;100770.41;5008867;28;20130;-64
2021/11/04 10:54:11;;;;;;;8.40;6.13;;;;;;;13.48;100.00;100787.69;5010184;28;20044;-66
2021/11/04 10:56:56;;;;;;;9.07;5.10;;;;;;;13.20;100.00;100775.69;5020059;28;20052;-67
2021/11/04 10:59:48;;;;;;;8.02;6.28;;;;;;;13.21;100.00;100782.75;5020986;28;20076;-67
2021/11/04 11:02:34;;;;;;;13.15;6.22;;;;;;;13.02;100.00;100777.72;5002260;28;20063;-64
2021/11/04 11:05:33;;;;;;;9.50;6.47;;;;;;;12.89;100.00;100773.41;5001472;28;20545;-67
2021/11/04 11:08:18;;;;;;;10.68;6.07;;;;;;;12.66;100.00;100776.38;4997830;28;20406;-63
2021/11/04 11:11:03;;;;;;;12.60;6.28;;;;;;;12.58;100.00;100785.38;5022309;28;20052;-63
2021/11/04 11:13:47;;;;;;;8.27;6.43;;;;;;;12.74;100.00;100787.81;5019573;28;20048;-64
2021/11/04 11:16:35;;;;;;;11.30;6.05;;;;;;;13.58;100.00;100783.94;5024924;28;20124;-70
2021/11/04 11:19:28;;;;;;;11.20;5.53;;;;;;;15.36;100.00;100788.50;5006233;28;20114;-62
2021/11/04 11:22:18;;;;;;;10.52;5.03;;;;;;;15.75;100.00;100788.41;5021801;28;20076;-65
2021/11/04 11:25:04;;;;;;;12.00;5.57;;;;;;;16.12;100.00;100797.28;5020923;28;20137;-67
2021/11/04 11:27:54;;;;;;;11.20;6.00;;;;;;;15.70;100.00;100800.16;5008033;28;20048;-67
2021/11/04 11:30:38;;;;;;;8.13;5.05;;;;;;;16.11;100.00;100797.31;4990416;28;20053;-67
2021/11/04 11:33:27;;;;;;;11.00;5.38;;;;;;;16.22;100.00;100790.75;5005664;28;20473;-63
2021/11/04 11:36:20;;;;;;;8.18;5.15;;;;;;;15.05;100.00;100806.09;4991441;28;20103;-65
2021/11/04 11:39:10;;;;;;;9.23;5.53;;;;;;;14.44;100.00;100813.59;5024118;28;20115;-71
2021/11/04 11:41:55;;;;;;;8.35;5.43;;;;;;;14.02;100.00;100820.53;5018743;28;20186;-71
2021/11/04 11:45:01;;;;;;;9.90;4.88;;;;;;;13.77;100.00;100820.06;5004972;28;20099;-65
2021/11/04 11:47:48;;;;;;;9.20;5.05;;;;;;;13.42;100.00;100817.06;5008514;28;20095;-65
2021/11/04 11:50:40;;;;;;;;;;;;;;;13.27;100.00;100825.31;5009030;28;20052;-64
2021/11/04 11:53:37;;;;;;;7.45;5.60;;;;;;;12.87;100.00;100824.03;5007767;28;19928;-63
2021/11/04 11:56:24;;;;;;;11.40;5.07;;;;;;;12.80;100.00;100821.44;5004390;28;20045;-62
2021/11/04 11:59:19;;;;;;;9.65;5.75;;;;;;;12.67;100.00;100818.03;5009841;28;20056;-65
2021/11/04 12:02:05;;;;;;;9.45;5.13;;;;;;;12.46;100.00;100820.97;5011377;28;20060;-63
2021/11/04 12:04:51;;;;;;;8.63;4.72;;;;;;;12.32;100.00;100825.56;4995597;28;20091;-66
2021/11/04 12:07:39;;;;;;;7.57;5.28;;;;;;;12.37;100.00;100812.19;5008674;28;20095;-64
2021/11/04 12:10:32;;;;;;;7.38;4.97;;;;;;;12.40;100.00;100812.16;5006149;28;20160;-66
2021/11/04 12:13:36;;;;;;;7.82;5.03;;;;;;;12.23;100.00;100819.44;5006827;28;20075;-74
2021/11/04 12:16:24;;;;;;;10.88;4.75;;;;;;;12.22;100.00;100825.66;5008856;28;20453;-64
2021/11/04 12:19:10;;;;;;;8.30;4.80;;;;;;;12.18;100.00;100829.25;5009011;28;20096;-62
2021/11/04 12:21:58;;;;;;;8.57;5.00;;;;;;;12.12;100.00;100839.94;5006791;28;20053;-69
2021/11/04 12:24:50;;;;;;;9.15;4.60;;;;;;;12.13;100.00;100833.72;5021993;28;20531;-65
2021/11/04 12:27:41;;;;;;;8.18;4.97;;;;;;;12.09;100.00;100837.28;5018011;28;20224;-69
2021/11/04 12:30:28;;;;;;;8.95;4.72;;;;;;;11.89;100.00;100831.28;5021457;28;20116;-73
2021/11/04 12:33:16;;;;;;;8.75;5.63;;;;;;;11.72;100.00;100839.41;5023160;28;20425;-66
2021/11/04 12:36:03;;;;;;;9.65;6.50;;;;;;;11.56;100.00;100845.69;5018585;28;20551;-67
2021/11/04 12:38:50;;;;;;;11.63;6.07;;;;;;;11.44;100.00;100836.91;5022943;28;20103;-77
2021/11/04 12:41:44;;;;;;;12.57;6.88;;;;;;;11.49;100.00;100843.94;5021276;28;20056;-66
2021/11/04 12:44:33;;;;;;;14.93;7.50;;;;;;;11.24;100.00;100841.47;5016187;28;20128;-65
2021/11/04 12:47:23;;;;;;;10.20;6.25;;;;;;;10.95;100.00;100851.34;5019669;28;20488;-68